sensor_id;sensor_type;location;lat;lon;timestamp;P1;durP1;ratioP1;P2;durP2;ratioP2
63218;SDS011;49320;52.512;13.448;2022-09-09T00:01:47;4.03;;;3.17;;
63218;SDS011;49320;52.512;13.448;2022-09-09T00:07:58;3.33;;;3.03;;
63218;SDS011;49320;52.512;13.448;2022-09-09T00:10:37;3.85;;;2.90;;
63218;SDS011;49320;52.512;13.448;2022-09-09T00:16:11;3.53;;;2.75;;
63218;SDS011;49320;52.512;13.448;2022-09-09T00:18:51;4.18;;;2.72;;
63218;SDS011;49320;52.512;13.448;2022-09-09T00:21:36;3.28;;;2.72;;
63218;SDS011;49320;52.512;13.448;2022-09-09T00:24:29;3.20;;;2.67;;
63218;SDS011;49320;52.512;13.448;2022-09-09T00:27:21;4.25;;;3.60;;
63218;SDS011;49320;52.512;13.448;2022-09-09T00:30:17;4.83;;;3.70;;
63218;SDS011;49320;52.512;13.448;2022-09-09T00:32:49;5.07;;;3.17;;
63218;SDS011;49320;52.512;13.448;2022-09-09T00:35:29;3.28;;;2.97;;
63218;SDS011;49320;52.512;13.448;2022-09-09T00:38:13;3.33;;;3.03;;
63218;SDS011;49320;52.512;13.448;2022-09-09T00:40:51;2.83;;;2.63;;
63218;SDS011;49320;52.512;13.448;2022-09-09T00:43:29;3.08;;;2.60;;
63218;SDS011;49320;52.512;13.448;2022-09-09T00:48:48;2.87;;;2.53;;
63218;SDS011;49320;52.512;13.448;2022-09-09T00:54:44;2.85;;;2.53;;
63218;SDS011;49320;52.512;13.448;2022-09-09T00:57:39;3.00;;;2.67;;
63218;SDS011;49320;52.512;13.448;2022-09-09T01:06:11;4.13;;;3.72;;
63218;SDS011;49320;52.512;13.448;2022-09-09T01:11:25;4.90;;;4.28;;
63218;SDS011;49320;52.512;13.448;2022-09-09T01:14:05;4.10;;;3.70;;
63218;SDS011;49320;52.512;13.448;2022-09-09T01:16:44;3.80;;;3.30;;
63218;SDS011;49320;52.512;13.448;2022-09-09T01:19:17;4.63;;;3.20;;
63218;SDS011;49320;52.512;13.448;2022-09-09T01:22:03;4.13;;;2.90;;
63218;SDS011;49320;52.512;13.448;2022-09-09T01:27:45;3.40;;;3.10;;
63218;SDS011;49320;52.512;13.448;2022-09-09T01:30:16;2.92;;;2.42;;
63218;SDS011;49320;52.512;13.448;2022-09-09T01:32:45;2.80;;;2.60;;
63218;SDS011;49320;52.512;13.448;2022-09-09T01:35:22;3.22;;;2.97;;
63218;SDS011;49320;52.512;13.448;2022-09-09T01:38:17;2.85;;;2.60;;
63218;SDS011;49320;52.512;13.448;2022-09-09T01:40:44;2.65;;;2.45;;
63218;SDS011;49320;52.512;13.448;2022-09-09T01:43:11;2.95;;;2.67;;
63218;SDS011;49320;52.512;13.448;2022-09-09T01:45:39;3.85;;;3.05;;
63218;SDS011;49320;52.512;13.448;2022-09-09T01:48:08;2.67;;;2.47;;
63218;SDS011;49320;52.512;13.448;2022-09-09T01:50:35;2.92;;;2.72;;
63218;SDS011;49320;52.512;13.448;2022-09-09T01:53:02;2.75;;;2.55;;
63218;SDS011;49320;52.512;13.448;2022-09-09T01:55:31;3.25;;;2.95;;
63218;SDS011;49320;52.512;13.448;2022-09-09T02:01:09;3.30;;;2.92;;
63218;SDS011;49320;52.512;13.448;2022-09-09T02:07:16;2.92;;;2.70;;
63218;SDS011;49320;52.512;13.448;2022-09-09T02:09:57;3.17;;;2.88;;
63218;SDS011;49320;52.512;13.448;2022-09-09T02:12:34;6.90;;;5.53;;
63218;SDS011;49320;52.512;13.448;2022-09-09T02:15:11;8.10;;;6.05;;
63218;SDS011;49320;52.512;13.448;2022-09-09T02:18:03;6.20;;;4.38;;
63218;SDS011;49320;52.512;13.448;2022-09-09T02:20:36;4.38;;;3.78;;
63218;SDS011;49320;52.512;13.448;2022-09-09T02:23:05;4.00;;;3.63;;
63218;SDS011;49320;52.512;13.448;2022-09-09T02:25:35;4.20;;;3.58;;
63218;SDS011;49320;52.512;13.448;2022-09-09T02:28:06;3.90;;;3.25;;
63218;SDS011;49320;52.512;13.448;2022-09-09T02:30:37;4.53;;;3.20;;
63218;SDS011;49320;52.512;13.448;2022-09-09T02:33:07;3.15;;;2.65;;
63218;SDS011;49320;52.512;13.448;2022-09-09T02:35:38;2.90;;;2.65;;
63218;SDS011;49320;52.512;13.448;2022-09-09T02:38:10;2.90;;;2.60;;
63218;SDS011;49320;52.512;13.448;2022-09-09T02:40:41;2.67;;;2.47;;
63218;SDS011;49320;52.512;13.448;2022-09-09T02:43:08;2.72;;;2.53;;
63218;SDS011;49320;52.512;13.448;2022-09-09T02:45:38;3.10;;;2.80;;
63218;SDS011;49320;52.512;13.448;2022-09-09T02:48:58;3.17;;;2.85;;
63218;SDS011;49320;52.512;13.448;2022-09-09T02:54:10;2.92;;;2.63;;
63218;SDS011;49320;52.512;13.448;2022-09-09T02:59:36;2.85;;;2.55;;
63218;SDS011;49320;52.512;13.448;2022-09-09T03:02:04;2.58;;;2.38;;
63218;SDS011;49320;52.512;13.448;2022-09-09T03:04:32;2.72;;;2.50;;
63218;SDS011;49320;52.512;13.448;2022-09-09T03:06:59;2.75;;;2.53;;
63218;SDS011;49320;52.512;13.448;2022-09-09T03:09:26;2.70;;;2.25;;
63218;SDS011;49320;52.512;13.448;2022-09-09T03:11:53;2.85;;;2.55;;
63218;SDS011;49320;52.512;13.448;2022-09-09T03:14:21;3.28;;;2.78;;
63218;SDS011;49320;52.512;13.448;2022-09-09T03:16:51;2.50;;;2.28;;
63218;SDS011;49320;52.512;13.448;2022-09-09T03:19:19;2.92;;;2.65;;
63218;SDS011;49320;52.512;13.448;2022-09-09T03:21:47;2.95;;;2.65;;
63218;SDS011;49320;52.512;13.448;2022-09-09T03:24:14;3.75;;;3.00;;
63218;SDS011;49320;52.512;13.448;2022-09-09T03:26:41;2.78;;;2.58;;
63218;SDS011;49320;52.512;13.448;2022-09-09T03:29:11;4.18;;;2.53;;
63218;SDS011;49320;52.512;13.448;2022-09-09T03:31:38;2.60;;;2.40;;
63218;SDS011;49320;52.512;13.448;2022-09-09T03:34:06;2.53;;;2.33;;
63218;SDS011;49320;52.512;13.448;2022-09-09T03:36:33;2.78;;;2.58;;
63218;SDS011;49320;52.512;13.448;2022-09-09T03:39:00;5.18;;;3.85;;
63218;SDS011;49320;52.512;13.448;2022-09-09T03:41:29;4.20;;;3.70;;
63218;SDS011;49320;52.512;13.448;2022-09-09T03:43:56;3.38;;;2.83;;
63218;SDS011;49320;52.512;13.448;2022-09-09T03:46:24;2.95;;;2.65;;
63218;SDS011;49320;52.512;13.448;2022-09-09T03:48:52;3.20;;;2.88;;
63218;SDS011;49320;52.512;13.448;2022-09-09T03:51:19;3.05;;;2.70;;
63218;SDS011;49320;52.512;13.448;2022-09-09T03:53:47;3.35;;;3.05;;
63218;SDS011;49320;52.512;13.448;2022-09-09T03:56:14;5.72;;;3.65;;
63218;SDS011;49320;52.512;13.448;2022-09-09T03:58:40;3.10;;;2.80;;
63218;SDS011;49320;52.512;13.448;2022-09-09T04:01:11;4.18;;;2.80;;
63218;SDS011;49320;52.512;13.448;2022-09-09T04:03:40;2.72;;;2.42;;
63218;SDS011;49320;52.512;13.448;2022-09-09T04:06:07;2.90;;;2.60;;
63218;SDS011;49320;52.512;13.448;2022-09-09T04:08:37;3.45;;;2.60;;
63218;SDS011;49320;52.512;13.448;2022-09-09T04:11:05;2.50;;;2.20;;
63218;SDS011;49320;52.512;13.448;2022-09-09T04:13:33;3.00;;;2.65;;
63218;SDS011;49320;52.512;13.448;2022-09-09T04:16:03;2.92;;;2.50;;
63218;SDS011;49320;52.512;13.448;2022-09-09T04:18:31;3.53;;;2.85;;
63218;SDS011;49320;52.512;13.448;2022-09-09T04:20:58;3.20;;;2.50;;
63218;SDS011;49320;52.512;13.448;2022-09-09T04:23:25;2.92;;;2.63;;
63218;SDS011;49320;52.512;13.448;2022-09-09T04:25:55;3.95;;;2.40;;
63218;SDS011;49320;52.512;13.448;2022-09-09T04:28:25;2.70;;;2.50;;
63218;SDS011;49320;52.512;13.448;2022-09-09T04:30:55;4.18;;;2.60;;
63218;SDS011;49320;52.512;13.448;2022-09-09T04:33:26;3.33;;;2.60;;
63218;SDS011;49320;52.512;13.448;2022-09-09T04:35:52;3.20;;;2.60;;
63218;SDS011;49320;52.512;13.448;2022-09-09T04:38:19;2.47;;;2.20;;
63218;SDS011;49320;52.512;13.448;2022-09-09T04:40:49;3.30;;;2.70;;
63218;SDS011;49320;52.512;13.448;2022-09-09T04:43:18;3.53;;;2.72;;
63218;SDS011;49320;52.512;13.448;2022-09-09T04:45:46;4.50;;;2.75;;
63218;SDS011;49320;52.512;13.448;2022-09-09T04:48:15;3.03;;;2.70;;
63218;SDS011;49320;52.512;13.448;2022-09-09T04:50:42;4.55;;;2.63;;
63218;SDS011;49320;52.512;13.448;2022-09-09T04:53:09;2.83;;;2.50;;
63218;SDS011;49320;52.512;13.448;2022-09-09T04:55:36;2.78;;;2.40;;
63218;SDS011;49320;52.512;13.448;2022-09-09T04:58:06;3.03;;;2.65;;
63218;SDS011;49320;52.512;13.448;2022-09-09T05:00:34;2.70;;;2.40;;
63218;SDS011;49320;52.512;13.448;2022-09-09T05:03:03;3.47;;;2.83;;
63218;SDS011;49320;52.512;13.448;2022-09-09T05:05:32;2.72;;;2.40;;
63218;SDS011;49320;52.512;13.448;2022-09-09T05:08:03;2.40;;;2.20;;
63218;SDS011;49320;52.512;13.448;2022-09-09T05:10:32;3.78;;;2.97;;
63218;SDS011;49320;52.512;13.448;2022-09-09T05:13:00;3.83;;;2.50;;
63218;SDS011;49320;52.512;13.448;2022-09-09T05:15:28;3.00;;;2.38;;
63218;SDS011;49320;52.512;13.448;2022-09-09T05:17:59;5.25;;;2.33;;
63218;SDS011;49320;52.512;13.448;2022-09-09T05:20:27;2.80;;;2.22;;
63218;SDS011;49320;52.512;13.448;2022-09-09T05:22:54;4.00;;;3.00;;
63218;SDS011;49320;52.512;13.448;2022-09-09T05:25:23;2.60;;;2.40;;
63218;SDS011;49320;52.512;13.448;2022-09-09T05:27:52;3.90;;;2.38;;
63218;SDS011;49320;52.512;13.448;2022-09-09T05:30:20;2.58;;;2.05;;
63218;SDS011;49320;52.512;13.448;2022-09-09T05:32:49;2.28;;;1.92;;
63218;SDS011;49320;52.512;13.448;2022-09-09T05:35:16;4.03;;;2.40;;
63218;SDS011;49320;52.512;13.448;2022-09-09T05:37:45;2.97;;;2.22;;
63218;SDS011;49320;52.512;13.448;2022-09-09T05:40:12;3.60;;;2.35;;
63218;SDS011;49320;52.512;13.448;2022-09-09T05:42:39;2.55;;;2.30;;
63218;SDS011;49320;52.512;13.448;2022-09-09T05:45:07;2.20;;;2.00;;
63218;SDS011;49320;52.512;13.448;2022-09-09T05:47:35;3.22;;;2.03;;
63218;SDS011;49320;52.512;13.448;2022-09-09T05:50:03;2.83;;;2.05;;
63218;SDS011;49320;52.512;13.448;2022-09-09T05:52:31;2.35;;;1.98;;
63218;SDS011;49320;52.512;13.448;2022-09-09T05:54:58;4.03;;;2.85;;
63218;SDS011;49320;52.512;13.448;2022-09-09T05:57:25;4.32;;;2.47;;
63218;SDS011;49320;52.512;13.448;2022-09-09T05:59:52;4.15;;;2.78;;
63218;SDS011;49320;52.512;13.448;2022-09-09T06:02:19;3.28;;;2.40;;
63218;SDS011;49320;52.512;13.448;2022-09-09T06:04:46;3.67;;;2.47;;
63218;SDS011;49320;52.512;13.448;2022-09-09T06:07:13;4.82;;;2.13;;
63218;SDS011;49320;52.512;13.448;2022-09-09T06:09:40;3.20;;;2.33;;
63218;SDS011;49320;52.512;13.448;2022-09-09T06:12:07;3.88;;;3.40;;
63218;SDS011;49320;52.512;13.448;2022-09-09T06:14:35;4.53;;;2.50;;
63218;SDS011;49320;52.512;13.448;2022-09-09T06:17:03;2.65;;;2.00;;
63218;SDS011;49320;52.512;13.448;2022-09-09T06:19:30;3.45;;;2.38;;
63218;SDS011;49320;52.512;13.448;2022-09-09T06:21:57;2.50;;;2.30;;
63218;SDS011;49320;52.512;13.448;2022-09-09T06:24:24;4.18;;;2.55;;
63218;SDS011;49320;52.512;13.448;2022-09-09T06:26:51;4.60;;;2.20;;
63218;SDS011;49320;52.512;13.448;2022-09-09T06:29:18;2.35;;;2.03;;
63218;SDS011;49320;52.512;13.448;2022-09-09T06:31:44;4.15;;;2.22;;
63218;SDS011;49320;52.512;13.448;2022-09-09T06:34:11;3.20;;;1.92;;
63218;SDS011;49320;52.512;13.448;2022-09-09T06:36:38;2.95;;;1.90;;
63218;SDS011;49320;52.512;13.448;2022-09-09T06:39:06;3.20;;;2.28;;
63218;SDS011;49320;52.512;13.448;2022-09-09T06:41:40;5.00;;;2.60;;
63218;SDS011;49320;52.512;13.448;2022-09-09T06:44:08;2.67;;;1.88;;
63218;SDS011;49320;52.512;13.448;2022-09-09T06:46:37;2.22;;;1.85;;
63218;SDS011;49320;52.512;13.448;2022-09-09T06:49:06;3.50;;;1.90;;
63218;SDS011;49320;52.512;13.448;2022-09-09T06:51:36;2.83;;;1.88;;
63218;SDS011;49320;52.512;13.448;2022-09-09T06:56:38;3.15;;;2.00;;
63218;SDS011;49320;52.512;13.448;2022-09-09T06:59:09;3.00;;;1.83;;
63218;SDS011;49320;52.512;13.448;2022-09-09T07:01:41;1.95;;;1.45;;
63218;SDS011;49320;52.512;13.448;2022-09-09T07:04:20;2.00;;;1.70;;
63218;SDS011;49320;52.512;13.448;2022-09-09T07:06:47;1.92;;;1.33;;
63218;SDS011;49320;52.512;13.448;2022-09-09T07:09:15;2.03;;;1.60;;
63218;SDS011;49320;52.512;13.448;2022-09-09T07:11:49;2.40;;;1.65;;
63218;SDS011;49320;52.512;13.448;2022-09-09T07:14:20;1.42;;;1.17;;
63218;SDS011;49320;52.512;13.448;2022-09-09T07:16:48;2.30;;;1.48;;
63218;SDS011;49320;52.512;13.448;2022-09-09T07:19:15;2.55;;;1.58;;
63218;SDS011;49320;52.512;13.448;2022-09-09T07:21:42;3.67;;;1.52;;
63218;SDS011;49320;52.512;13.448;2022-09-09T07:24:09;2.20;;;1.60;;
63218;SDS011;49320;52.512;13.448;2022-09-09T07:26:39;2.80;;;1.60;;
63218;SDS011;49320;52.512;13.448;2022-09-09T07:29:07;2.70;;;1.70;;
63218;SDS011;49320;52.512;13.448;2022-09-09T07:31:35;2.95;;;1.65;;
63218;SDS011;49320;52.512;13.448;2022-09-09T07:34:06;4.78;;;2.60;;
63218;SDS011;49320;52.512;13.448;2022-09-09T07:36:35;2.60;;;1.60;;
63218;SDS011;49320;52.512;13.448;2022-09-09T07:39:06;2.03;;;1.65;;
63218;SDS011;49320;52.512;13.448;2022-09-09T07:41:40;4.03;;;2.15;;
63218;SDS011;49320;52.512;13.448;2022-09-09T07:44:13;5.43;;;1.85;;
63218;SDS011;49320;52.512;13.448;2022-09-09T07:46:43;2.75;;;1.42;;
63218;SDS011;49320;52.512;13.448;2022-09-09T07:49:11;2.50;;;1.90;;
63218;SDS011;49320;52.512;13.448;2022-09-09T07:51:41;1.77;;;1.50;;
63218;SDS011;49320;52.512;13.448;2022-09-09T07:54:12;2.30;;;1.50;;
63218;SDS011;49320;52.512;13.448;2022-09-09T07:56:41;1.98;;;1.50;;
63218;SDS011;49320;52.512;13.448;2022-09-09T07:59:08;2.75;;;1.40;;
63218;SDS011;49320;52.512;13.448;2022-09-09T08:01:37;2.20;;;1.48;;
63218;SDS011;49320;52.512;13.448;2022-09-09T08:04:09;2.40;;;1.30;;
63218;SDS011;49320;52.512;13.448;2022-09-09T08:06:44;2.13;;;1.30;;
63218;SDS011;49320;52.512;13.448;2022-09-09T08:09:19;3.30;;;1.77;;
63218;SDS011;49320;52.512;13.448;2022-09-09T08:11:46;2.75;;;1.35;;
63218;SDS011;49320;52.512;13.448;2022-09-09T08:14:14;3.30;;;1.45;;
63218;SDS011;49320;52.512;13.448;2022-09-09T08:16:43;1.95;;;1.65;;
63218;SDS011;49320;52.512;13.448;2022-09-09T08:19:13;2.40;;;1.42;;
63218;SDS011;49320;52.512;13.448;2022-09-09T08:21:41;3.28;;;1.50;;
63218;SDS011;49320;52.512;13.448;2022-09-09T08:24:09;2.22;;;1.30;;
63218;SDS011;49320;52.512;13.448;2022-09-09T08:26:39;1.63;;;1.20;;
63218;SDS011;49320;52.512;13.448;2022-09-09T08:29:08;3.17;;;1.13;;
63218;SDS011;49320;52.512;13.448;2022-09-09T08:31:39;2.72;;;1.30;;
63218;SDS011;49320;52.512;13.448;2022-09-09T08:34:14;1.25;;;1.00;;
63218;SDS011;49320;52.512;13.448;2022-09-09T08:36:42;3.10;;;1.52;;
63218;SDS011;49320;52.512;13.448;2022-09-09T08:39:12;3.60;;;1.38;;
63218;SDS011;49320;52.512;13.448;2022-09-09T08:44:31;1.88;;;1.30;;
63218;SDS011;49320;52.512;13.448;2022-09-09T08:50:12;2.63;;;1.30;;
63218;SDS011;49320;52.512;13.448;2022-09-09T09:00:50;2.70;;;1.40;;
63218;SDS011;49320;52.512;13.448;2022-09-09T09:03:43;1.77;;;1.30;;
63218;SDS011;49320;52.512;13.448;2022-09-09T09:09:06;1.58;;;1.25;;
63218;SDS011;49320;52.512;13.448;2022-09-09T09:11:53;3.33;;;2.10;;
63218;SDS011;49320;52.512;13.448;2022-09-09T09:14:30;3.25;;;1.88;;
63218;SDS011;49320;52.512;13.448;2022-09-09T09:17:14;1.80;;;1.45;;
63218;SDS011;49320;52.512;13.448;2022-09-09T09:19:47;2.13;;;1.23;;
63218;SDS011;49320;52.512;13.448;2022-09-09T09:22:22;1.50;;;1.35;;
63218;SDS011;49320;52.512;13.448;2022-09-09T09:25:02;2.65;;;1.80;;
63218;SDS011;49320;52.512;13.448;2022-09-09T09:30:29;3.28;;;1.45;;
63218;SDS011;49320;52.512;13.448;2022-09-09T09:35:49;2.00;;;1.15;;
63218;SDS011;49320;52.512;13.448;2022-09-09T09:41:13;2.83;;;1.45;;
63218;SDS011;49320;52.512;13.448;2022-09-09T09:43:40;2.92;;;1.60;;
63218;SDS011;49320;52.512;13.448;2022-09-09T09:46:20;2.35;;;1.42;;
63218;SDS011;49320;52.512;13.448;2022-09-09T09:49:08;2.97;;;1.60;;
63218;SDS011;49320;52.512;13.448;2022-09-09T09:51:36;2.50;;;1.45;;
63218;SDS011;49320;52.512;13.448;2022-09-09T09:54:06;2.20;;;1.50;;
63218;SDS011;49320;52.512;13.448;2022-09-09T09:56:39;2.70;;;1.50;;
63218;SDS011;49320;52.512;13.448;2022-09-09T09:59:21;2.58;;;1.50;;
63218;SDS011;49320;52.512;13.448;2022-09-09T10:02:15;2.22;;;1.33;;
63218;SDS011;49320;52.512;13.448;2022-09-09T10:04:44;3.80;;;1.33;;
63218;SDS011;49320;52.512;13.448;2022-09-09T10:07:12;3.78;;;1.92;;
63218;SDS011;49320;52.512;13.448;2022-09-09T10:09:50;2.05;;;1.27;;
63218;SDS011;49320;52.512;13.448;2022-09-09T10:12:24;2.25;;;1.20;;
63218;SDS011;49320;52.512;13.448;2022-09-09T10:15:05;2.13;;;1.23;;
63218;SDS011;49320;52.512;13.448;2022-09-09T10:20:42;2.15;;;1.40;;
63218;SDS011;49320;52.512;13.448;2022-09-09T10:23:42;2.05;;;1.20;;
63218;SDS011;49320;52.512;13.448;2022-09-09T10:26:26;2.10;;;1.20;;
63218;SDS011;49320;52.512;13.448;2022-09-09T10:32:30;2.55;;;1.50;;
63218;SDS011;49320;52.512;13.448;2022-09-09T10:38:39;3.60;;;1.48;;
63218;SDS011;49320;52.512;13.448;2022-09-09T10:43:53;2.58;;;1.17;;
63218;SDS011;49320;52.512;13.448;2022-09-09T10:49:29;1.50;;;1.00;;
63218;SDS011;49320;52.512;13.448;2022-09-09T10:52:30;3.67;;;1.20;;
63218;SDS011;49320;52.512;13.448;2022-09-09T10:55:13;3.15;;;1.30;;
63218;SDS011;49320;52.512;13.448;2022-09-09T10:57:46;2.60;;;1.33;;
63218;SDS011;49320;52.512;13.448;2022-09-09T11:00:19;2.38;;;1.27;;
63218;SDS011;49320;52.512;13.448;2022-09-09T11:08:19;2.63;;;1.27;;
63218;SDS011;49320;52.512;13.448;2022-09-09T11:16:22;1.73;;;0.90;;
63218;SDS011;49320;52.512;13.448;2022-09-09T11:21:50;2.92;;;1.30;;
63218;SDS011;49320;52.512;13.448;2022-09-09T11:27:11;4.28;;;1.45;;
63218;SDS011;49320;52.512;13.448;2022-09-09T11:29:57;2.63;;;1.25;;
63218;SDS011;49320;52.512;13.448;2022-09-09T11:33:08;2.80;;;0.82;;
63218;SDS011;49320;52.512;13.448;2022-09-09T11:35:59;3.42;;;1.77;;
63218;SDS011;49320;52.512;13.448;2022-09-09T11:38:46;2.08;;;1.60;;
63218;SDS011;49320;52.512;13.448;2022-09-09T11:41:17;1.88;;;1.30;;
63218;SDS011;49320;52.512;13.448;2022-09-09T11:43:51;2.20;;;1.20;;
63218;SDS011;49320;52.512;13.448;2022-09-09T11:46:22;1.52;;;1.20;;
63218;SDS011;49320;52.512;13.448;2022-09-09T11:49:03;2.40;;;1.30;;
63218;SDS011;49320;52.512;13.448;2022-09-09T11:51:33;2.30;;;1.40;;
63218;SDS011;49320;52.512;13.448;2022-09-09T11:54:25;1.75;;;1.10;;
63218;SDS011;49320;52.512;13.448;2022-09-09T11:56:58;1.58;;;1.15;;
63218;SDS011;49320;52.512;13.448;2022-09-09T11:59:32;1.33;;;1.02;;
63218;SDS011;49320;52.512;13.448;2022-09-09T12:02:08;1.70;;;1.00;;
63218;SDS011;49320;52.512;13.448;2022-09-09T12:04:54;4.22;;;3.40;;
63218;SDS011;49320;52.512;13.448;2022-09-09T12:07:31;3.20;;;2.50;;
63218;SDS011;49320;52.512;13.448;2022-09-09T12:10:01;2.38;;;1.30;;
63218;SDS011;49320;52.512;13.448;2022-09-09T12:12:36;2.13;;;1.20;;
63218;SDS011;49320;52.512;13.448;2022-09-09T12:17:42;4.22;;;1.70;;
63218;SDS011;49320;52.512;13.448;2022-09-09T12:32:24;1.75;;;1.27;;
63218;SDS011;49320;52.512;13.448;2022-09-09T12:34:53;1.48;;;0.95;;
63218;SDS011;49320;52.512;13.448;2022-09-09T12:37:43;1.35;;;0.80;;
63218;SDS011;49320;52.512;13.448;2022-09-09T12:40:28;2.08;;;1.60;;
63218;SDS011;49320;52.512;13.448;2022-09-09T12:43:23;2.85;;;1.40;;
63218;SDS011;49320;52.512;13.448;2022-09-09T12:45:51;2.90;;;1.83;;
63218;SDS011;49320;52.512;13.448;2022-09-09T12:48:40;3.47;;;1.70;;
63218;SDS011;49320;52.512;13.448;2022-09-09T12:51:25;2.10;;;1.20;;
63218;SDS011;49320;52.512;13.448;2022-09-09T12:53:56;2.17;;;1.17;;
63218;SDS011;49320;52.512;13.448;2022-09-09T12:56:26;4.43;;;1.65;;
63218;SDS011;49320;52.512;13.448;2022-09-09T12:58:57;1.23;;;1.05;;
63218;SDS011;49320;52.512;13.448;2022-09-09T13:01:26;3.38;;;1.13;;
63218;SDS011;49320;52.512;13.448;2022-09-09T13:03:57;1.33;;;0.77;;
63218;SDS011;49320;52.512;13.448;2022-09-09T13:06:28;1.38;;;0.75;;
63218;SDS011;49320;52.512;13.448;2022-09-09T13:08:59;1.13;;;0.90;;
63218;SDS011;49320;52.512;13.448;2022-09-09T13:11:36;2.05;;;1.38;;
63218;SDS011;49320;52.512;13.448;2022-09-09T13:14:15;2.20;;;1.33;;
63218;SDS011;49320;52.512;13.448;2022-09-09T13:17:00;2.08;;;1.23;;
63218;SDS011;49320;52.512;13.448;2022-09-09T13:19:34;1.23;;;1.00;;
63218;SDS011;49320;52.512;13.448;2022-09-09T13:22:14;2.63;;;1.10;;
63218;SDS011;49320;52.512;13.448;2022-09-09T13:25:26;2.22;;;1.10;;
63218;SDS011;49320;52.512;13.448;2022-09-09T13:30:33;1.88;;;0.90;;
63218;SDS011;49320;52.512;13.448;2022-09-09T13:36:05;2.13;;;1.25;;
63218;SDS011;49320;52.512;13.448;2022-09-09T13:38:36;1.13;;;0.80;;
63218;SDS011;49320;52.512;13.448;2022-09-09T13:41:22;1.20;;;0.77;;
63218;SDS011;49320;52.512;13.448;2022-09-09T13:44:01;1.58;;;0.95;;
63218;SDS011;49320;52.512;13.448;2022-09-09T13:46:37;0.95;;;0.80;;
63218;SDS011;49320;52.512;13.448;2022-09-09T13:51:42;2.80;;;0.90;;
63218;SDS011;49320;52.512;13.448;2022-09-09T13:54:13;1.95;;;1.05;;
63218;SDS011;49320;52.512;13.448;2022-09-09T13:56:43;2.70;;;1.05;;
63218;SDS011;49320;52.512;13.448;2022-09-09T13:59:12;1.95;;;0.90;;
63218;SDS011;49320;52.512;13.448;2022-09-09T14:01:42;1.60;;;1.02;;
63218;SDS011;49320;52.512;13.448;2022-09-09T14:04:09;1.60;;;0.80;;
63218;SDS011;49320;52.512;13.448;2022-09-09T14:06:36;1.98;;;1.00;;
63218;SDS011;49320;52.512;13.448;2022-09-09T14:09:05;1.67;;;1.00;;
63218;SDS011;49320;52.512;13.448;2022-09-09T14:11:38;3.57;;;0.93;;
63218;SDS011;49320;52.512;13.448;2022-09-09T14:14:04;3.83;;;1.40;;
63218;SDS011;49320;52.512;13.448;2022-09-09T14:16:31;2.25;;;0.90;;
63218;SDS011;49320;52.512;13.448;2022-09-09T14:18:58;1.98;;;1.20;;
63218;SDS011;49320;52.512;13.448;2022-09-09T14:21:26;3.05;;;1.02;;
63218;SDS011;49320;52.512;13.448;2022-09-09T14:23:53;1.40;;;0.90;;
63218;SDS011;49320;52.512;13.448;2022-09-09T14:26:21;3.55;;;0.98;;
63218;SDS011;49320;52.512;13.448;2022-09-09T14:28:49;2.20;;;1.00;;
63218;SDS011;49320;52.512;13.448;2022-09-09T14:31:21;2.83;;;1.20;;
63218;SDS011;49320;52.512;13.448;2022-09-09T14:33:50;4.80;;;1.58;;
63218;SDS011;49320;52.512;13.448;2022-09-09T14:36:17;2.72;;;1.00;;
63218;SDS011;49320;52.512;13.448;2022-09-09T14:38:44;4.43;;;1.17;;
63218;SDS011;49320;52.512;13.448;2022-09-09T14:41:12;1.17;;;0.82;;
63218;SDS011;49320;52.512;13.448;2022-09-09T14:43:43;2.83;;;1.05;;
63218;SDS011;49320;52.512;13.448;2022-09-09T14:46:12;1.90;;;1.13;;
63218;SDS011;49320;52.512;13.448;2022-09-09T14:48:42;1.58;;;1.20;;
63218;SDS011;49320;52.512;13.448;2022-09-09T14:51:21;1.85;;;1.15;;
63218;SDS011;49320;52.512;13.448;2022-09-09T14:53:51;2.45;;;0.95;;
63218;SDS011;49320;52.512;13.448;2022-09-09T14:56:20;2.38;;;1.23;;
63218;SDS011;49320;52.512;13.448;2022-09-09T14:58:49;2.33;;;0.90;;
63218;SDS011;49320;52.512;13.448;2022-09-09T15:01:17;1.95;;;1.17;;
63218;SDS011;49320;52.512;13.448;2022-09-09T15:03:50;1.40;;;0.88;;
63218;SDS011;49320;52.512;13.448;2022-09-09T15:06:30;1.88;;;1.27;;
63218;SDS011;49320;52.512;13.448;2022-09-09T15:09:00;2.00;;;1.25;;
63218;SDS011;49320;52.512;13.448;2022-09-09T15:11:28;1.65;;;0.98;;
63218;SDS011;49320;52.512;13.448;2022-09-09T15:14:00;2.78;;;1.15;;
63218;SDS011;49320;52.512;13.448;2022-09-09T15:16:27;2.00;;;1.00;;
63218;SDS011;49320;52.512;13.448;2022-09-09T15:18:55;3.15;;;1.00;;
63218;SDS011;49320;52.512;13.448;2022-09-09T15:21:26;1.67;;;0.95;;
63218;SDS011;49320;52.512;13.448;2022-09-09T15:23:56;2.63;;;1.38;;
63218;SDS011;49320;52.512;13.448;2022-09-09T15:26:25;1.63;;;1.02;;
63218;SDS011;49320;52.512;13.448;2022-09-09T15:28:53;3.22;;;1.40;;
63218;SDS011;49320;52.512;13.448;2022-09-09T15:31:21;3.38;;;1.00;;
63218;SDS011;49320;52.512;13.448;2022-09-09T15:33:54;1.08;;;0.90;;
63218;SDS011;49320;52.512;13.448;2022-09-09T15:36:36;2.33;;;1.23;;
63218;SDS011;49320;52.512;13.448;2022-09-09T15:39:06;2.17;;;1.00;;
63218;SDS011;49320;52.512;13.448;2022-09-09T15:41:38;1.15;;;0.80;;
63218;SDS011;49320;52.512;13.448;2022-09-09T15:44:06;1.83;;;1.30;;
63218;SDS011;49320;52.512;13.448;2022-09-09T15:47:08;2.35;;;1.10;;
63218;SDS011;49320;52.512;13.448;2022-09-09T15:49:27;1.40;;;1.10;;
63218;SDS011;49320;52.512;13.448;2022-09-09T15:51:54;1.83;;;1.00;;
63218;SDS011;49320;52.512;13.448;2022-09-09T15:54:24;2.60;;;1.27;;
63218;SDS011;49320;52.512;13.448;2022-09-09T15:56:53;2.05;;;0.85;;
63218;SDS011;49320;52.512;13.448;2022-09-09T15:59:23;2.40;;;1.10;;
63218;SDS011;49320;52.512;13.448;2022-09-09T16:01:53;1.63;;;1.33;;
63218;SDS011;49320;52.512;13.448;2022-09-09T16:04:21;1.90;;;1.15;;
63218;SDS011;49320;52.512;13.448;2022-09-09T16:06:54;2.33;;;1.15;;
63218;SDS011;49320;52.512;13.448;2022-09-09T16:09:25;2.25;;;1.30;;
63218;SDS011;49320;52.512;13.448;2022-09-09T16:11:55;2.63;;;1.30;;
63218;SDS011;49320;52.512;13.448;2022-09-09T16:14:25;2.35;;;1.30;;
63218;SDS011;49320;52.512;13.448;2022-09-09T16:16:52;1.50;;;1.23;;
63218;SDS011;49320;52.512;13.448;2022-09-09T16:19:19;2.58;;;1.50;;
63218;SDS011;49320;52.512;13.448;2022-09-09T16:21:47;1.90;;;1.50;;
63218;SDS011;49320;52.512;13.448;2022-09-09T16:24:16;2.95;;;1.35;;
63218;SDS011;49320;52.512;13.448;2022-09-09T16:26:49;1.65;;;1.33;;
63218;SDS011;49320;52.512;13.448;2022-09-09T16:29:18;2.40;;;1.58;;
63218;SDS011;49320;52.512;13.448;2022-09-09T16:31:48;3.10;;;1.80;;
63218;SDS011;49320;52.512;13.448;2022-09-09T16:34:17;3.25;;;2.22;;
63218;SDS011;49320;52.512;13.448;2022-09-09T16:36:45;2.80;;;1.80;;
63218;SDS011;49320;52.512;13.448;2022-09-09T16:39:15;2.53;;;1.50;;
63218;SDS011;49320;52.512;13.448;2022-09-09T16:41:45;2.47;;;1.40;;
63218;SDS011;49320;52.512;13.448;2022-09-09T16:44:14;1.33;;;0.93;;
63218;SDS011;49320;52.512;13.448;2022-09-09T16:46:45;1.58;;;1.17;;
63218;SDS011;49320;52.512;13.448;2022-09-09T16:49:14;2.55;;;1.58;;
63218;SDS011;49320;52.512;13.448;2022-09-09T16:51:43;2.33;;;1.73;;
63218;SDS011;49320;52.512;13.448;2022-09-09T16:54:15;2.88;;;1.65;;
63218;SDS011;49320;52.512;13.448;2022-09-09T16:56:43;2.92;;;1.30;;
63218;SDS011;49320;52.512;13.448;2022-09-09T16:59:13;2.42;;;1.63;;
63218;SDS011;49320;52.512;13.448;2022-09-09T17:01:46;2.60;;;1.75;;
63218;SDS011;49320;52.512;13.448;2022-09-09T17:04:17;4.55;;;1.70;;